createdAt,value
2023-02-26T00:00:21.363Z,16.37
2023-02-26T00:01:25.770Z,15.66
2023-02-26T00:02:27.721Z,16.20
2023-02-26T00:03:29.741Z,16.06
2023-02-26T00:04:31.605Z,16.13
2023-02-26T00:05:33.479Z,16.29
2023-02-26T00:06:38.340Z,16.29
2023-02-26T00:07:40.511Z,16.13
2023-02-26T00:08:42.531Z,15.89
2023-02-26T00:09:44.315Z,15.79
2023-02-26T00:10:46.391Z,16.06
2023-02-26T00:11:48.979Z,15.86
2023-02-26T00:12:51.165Z,16.06
2023-02-26T00:13:53.605Z,15.79
2023-02-26T00:14:56.102Z,15.75
2023-02-26T00:16:01.170Z,15.96
2023-02-26T00:17:29.258Z,16.22
2023-02-26T00:18:31.456Z,16.02
2023-02-26T00:19:34.274Z,15.94
2023-02-26T00:20:37.164Z,15.82
2023-02-26T00:21:39.748Z,15.94
2023-02-26T00:22:41.891Z,15.92
2023-02-26T00:23:44.105Z,15.85
2023-02-26T00:24:45.982Z,15.85
2023-02-26T00:25:47.960Z,15.86
2023-02-26T00:26:50.144Z,15.09
2023-02-26T00:27:52.593Z,15.35
2023-02-26T00:28:55.578Z,15.90
2023-02-26T00:29:57.790Z,15.85
2023-02-26T00:30:59.949Z,15.95
2023-02-26T00:32:02.371Z,16.03
2023-02-26T00:33:05.609Z,15.63
2023-02-26T00:34:12.441Z,15.87
2023-02-26T00:35:16.457Z,15.93
2023-02-26T00:36:30.300Z,16.05
2023-02-26T00:37:37.675Z,16.06
2023-02-26T00:38:46.403Z,14.95
2023-02-26T00:40:17.572Z,16.11
2023-02-26T00:41:19.731Z,15.75
2023-02-26T00:42:21.860Z,15.85
2023-02-26T00:43:26.723Z,16.01
2023-02-26T00:44:29.386Z,15.78
2023-02-26T00:45:32.130Z,15.85
2023-02-26T00:46:37.209Z,15.67
2023-02-26T00:48:12.691Z,15.55
2023-02-26T00:49:45.502Z,16.02
2023-02-26T00:51:02.690Z,15.88
2023-02-26T00:52:10.711Z,15.64
2023-02-26T00:53:15.300Z,16.00
2023-02-26T00:54:21.530Z,15.95
2023-02-26T00:55:27.301Z,15.65
2023-02-26T00:56:31.859Z,15.91
2023-02-26T00:57:33.702Z,15.45
2023-02-26T00:58:35.527Z,15.67
2023-02-26T00:59:37.379Z,15.77
2023-02-26T01:00:39.196Z,14.76
2023-02-26T01:01:41.143Z,14.81
2023-02-26T01:02:43.574Z,15.65
2023-02-26T01:03:45.894Z,15.63
2023-02-26T01:04:48.551Z,15.40
2023-02-26T01:05:50.928Z,15.03
2023-02-26T01:06:57.177Z,15.81
2023-02-26T01:08:05.637Z,15.84
2023-02-26T01:09:22.112Z,15.63
2023-02-26T01:10:24.468Z,15.24
2023-02-26T01:11:26.598Z,14.97
2023-02-26T01:12:28.715Z,15.50
2023-02-26T01:13:30.988Z,15.69
2023-02-26T01:14:33.721Z,15.79
2023-02-26T01:15:35.937Z,15.54
2023-02-26T01:17:02.660Z,15.82
2023-02-26T01:18:26.273Z,15.43
2023-02-26T01:19:38.102Z,15.63
2023-02-26T01:20:48.406Z,15.42
2023-02-26T01:22:00.413Z,14.87
2023-02-26T01:23:06.957Z,15.82
2023-02-26T01:24:14.685Z,15.54
2023-02-26T01:25:30.915Z,15.79
2023-02-26T01:26:33.038Z,15.07
2023-02-26T01:27:35.095Z,15.54
2023-02-26T01:28:37.964Z,15.57
2023-02-26T01:29:40.024Z,15.74
2023-02-26T01:30:42.381Z,15.11
2023-02-26T01:32:02.219Z,15.75
2023-02-26T01:33:28.166Z,15.75
2023-02-26T01:34:54.938Z,15.79
2023-02-26T01:36:08.603Z,15.19
2023-02-26T01:37:33.513Z,15.79
2023-02-26T01:38:49.870Z,15.80
2023-02-26T01:40:22.669Z,15.12
2023-02-26T01:41:27.439Z,15.53
2023-02-26T01:42:36.153Z,15.74
2023-02-26T01:43:51.854Z,15.75
2023-02-26T01:45:03.599Z,15.59
2023-02-26T01:46:32.917Z,15.71
2023-02-26T01:47:54.469Z,15.72
2023-02-26T01:48:58.659Z,15.71
2023-02-26T01:50:16.015Z,15.54
2023-02-26T01:51:19.695Z,15.32
2023-02-26T01:52:50.284Z,15.74
2023-02-26T01:53:52.269Z,15.15
2023-02-26T01:54:54.153Z,15.01
2023-02-26T01:56:03.523Z,15.66
2023-02-26T01:57:10.920Z,15.67
2023-02-26T01:58:13.138Z,14.91
2023-02-26T01:59:17.267Z,15.14
2023-02-26T02:00:19.577Z,15.14
2023-02-26T02:01:21.393Z,15.36
2023-02-26T02:02:25.820Z,15.38
2023-02-26T02:03:30.593Z,15.06
2023-02-26T02:04:34.226Z,15.38
2023-02-26T02:05:46.393Z,15.25
2023-02-26T02:06:48.833Z,15.38
2023-02-26T02:07:50.980Z,15.48
2023-02-26T02:08:53.272Z,15.27
2023-02-26T02:09:55.278Z,15.16
2023-02-26T02:10:57.152Z,15.38
2023-02-26T02:12:08.164Z,15.59
2023-02-26T02:13:15.753Z,15.60
2023-02-26T02:14:27.710Z,15.38
2023-02-26T02:15:45.099Z,15.42
2023-02-26T02:17:02.813Z,15.19
2023-02-26T02:18:21.717Z,15.63
2023-02-26T02:19:51.672Z,15.39
2023-02-26T02:21:17.187Z,15.49
2023-02-26T02:22:18.968Z,15.68
2023-02-26T02:23:53.125Z,15.64
2023-02-26T02:24:57.541Z,15.65
2023-02-26T02:26:17.831Z,15.63
2023-02-26T02:27:30.446Z,15.30
2023-02-26T02:28:44.182Z,15.62
2023-02-26T02:29:45.949Z,15.60
2023-02-26T02:30:56.946Z,15.57
2023-02-26T02:32:02.523Z,15.48
2023-02-26T02:33:15.216Z,15.13
2023-02-26T02:34:24.471Z,15.08
2023-02-26T02:35:34.534Z,15.10
2023-02-26T02:36:47.223Z,15.34
2023-02-26T02:37:59.055Z,15.29
2023-02-26T02:39:40.693Z,15.64
2023-02-26T02:40:48.116Z,15.38
2023-02-26T02:41:59.373Z,15.27
2023-02-26T02:43:21.154Z,15.62
2023-02-26T02:44:26.708Z,15.08
2023-02-26T02:45:36.346Z,15.56
2023-02-26T02:46:43.357Z,15.05
2023-02-26T02:47:50.350Z,15.25
2023-02-26T02:49:04.372Z,15.53
2023-02-26T02:50:24.336Z,15.33
2023-02-26T02:51:37.898Z,15.44
2023-02-26T02:52:43.241Z,15.56
2023-02-26T02:53:52.455Z,15.27
2023-02-26T02:55:20.319Z,15.58
2023-02-26T02:56:22.482Z,15.58
2023-02-26T02:57:31.395Z,15.53
2023-02-26T02:58:44.779Z,15.30
2023-02-26T02:59:49.638Z,14.55
2023-02-26T03:00:56.567Z,15.51
2023-02-26T03:02:31.199Z,15.55
2023-02-26T03:03:53.948Z,15.58
2023-02-26T03:04:55.890Z,15.56
2023-02-26T03:05:57.959Z,15.25
2023-02-26T03:06:59.811Z,15.04
2023-02-26T03:08:05.675Z,15.46
2023-02-26T03:09:09.194Z,15.46
2023-02-26T03:10:12.635Z,15.25
2023-02-26T03:11:15.109Z,15.47
2023-02-26T03:12:17.242Z,15.06
2023-02-26T03:13:23.755Z,15.15
2023-02-26T03:14:32.820Z,15.19
2023-02-26T03:15:55.581Z,15.47
2023-02-26T03:17:24.712Z,15.53
2023-02-26T03:18:44.949Z,15.55
2023-02-26T03:20:17.074Z,15.58
2023-02-26T03:21:30.863Z,15.57
2023-02-26T03:22:36.945Z,15.14
2023-02-26T03:23:50.693Z,15.07
2023-02-26T03:25:04.262Z,15.19
2023-02-26T03:26:14.263Z,14.55
2023-02-26T03:27:34.710Z,15.51
2023-02-26T03:28:55.512Z,15.30
2023-02-26T03:30:16.089Z,15.40
2023-02-26T03:31:36.226Z,15.29
2023-02-26T03:32:51.516Z,14.85
2023-02-26T03:34:05.994Z,15.50
2023-02-26T03:35:13.884Z,15.33
2023-02-26T03:36:25.401Z,15.48
2023-02-26T03:37:55.938Z,15.52
2023-02-26T03:39:09.753Z,15.25
2023-02-26T03:40:19.597Z,15.21
2023-02-26T03:41:40.127Z,14.93
2023-02-26T03:42:45.926Z,14.74
2023-02-26T03:44:27.476Z,15.49
2023-02-26T03:45:33.967Z,15.20
2023-02-26T03:46:43.875Z,14.56
2023-02-26T03:47:50.457Z,15.11
2023-02-26T03:48:56.194Z,15.19
2023-02-26T03:50:22.169Z,15.27
2023-02-26T03:51:46.333Z,15.17
2023-02-26T03:53:18.503Z,15.12
2023-02-26T03:54:59.928Z,15.54
2023-02-26T03:56:40.659Z,15.39
2023-02-26T03:58:01.525Z,15.16
2023-02-26T03:59:26.329Z,15.31
2023-02-26T04:00:55.676Z,15.35
2023-02-26T04:02:28.380Z,15.50
2023-02-26T04:03:49.695Z,15.51
2023-02-26T04:04:57.118Z,15.12
2023-02-26T04:06:00.985Z,15.28
2023-02-26T04:07:03.610Z,14.49
2023-02-26T04:08:05.447Z,15.28
2023-02-26T04:09:08.632Z,15.14
2023-02-26T04:10:16.865Z,15.04
2023-02-26T04:11:22.864Z,15.26
2023-02-26T04:12:27.610Z,15.19
2023-02-26T04:13:29.880Z,14.93
2023-02-26T04:14:32.099Z,15.01
2023-02-26T04:15:34.238Z,14.28
2023-02-26T04:16:36.075Z,14.49
2023-02-26T04:17:38.313Z,14.58
2023-02-26T04:18:42.633Z,15.16
2023-02-26T04:19:45.122Z,15.00
2023-02-26T04:20:47.726Z,15.10
2023-02-26T04:21:49.791Z,14.84
2023-02-26T04:22:51.901Z,15.33
2023-02-26T04:23:57.184Z,15.14
2023-02-26T04:24:59.658Z,15.12
2023-02-26T04:26:01.542Z,14.98
2023-02-26T04:27:04.613Z,15.17
2023-02-26T04:28:08.198Z,15.22
2023-02-26T04:29:10.731Z,14.72
2023-02-26T04:30:13.824Z,14.32
2023-02-26T04:31:15.863Z,14.87
2023-02-26T04:32:17.923Z,15.16
2023-02-26T04:33:19.904Z,14.97
2023-02-26T04:34:23.298Z,14.96
2023-02-26T04:35:25.699Z,14.96
2023-02-26T04:36:27.873Z,15.34
2023-02-26T04:37:30.494Z,15.03
2023-02-26T04:38:33.298Z,14.85
2023-02-26T04:39:35.176Z,14.45
2023-02-26T04:40:37.028Z,15.12
2023-02-26T04:41:39.634Z,15.22
2023-02-26T04:42:43.059Z,14.98
2023-02-26T04:43:45.852Z,14.94
2023-02-26T04:45:08.564Z,15.16
2023-02-26T04:46:12.840Z,15.15
2023-02-26T04:47:14.840Z,14.51
2023-02-26T04:48:18.417Z,15.34
2023-02-26T04:49:20.309Z,15.02
2023-02-26T04:50:22.738Z,15.16
2023-02-26T04:51:27.362Z,15.08
2023-02-26T04:52:29.409Z,15.08
2023-02-26T04:53:32.686Z,15.10
2023-02-26T04:54:34.509Z,15.00
2023-02-26T04:55:37.234Z,14.80
2023-02-26T04:56:41.009Z,15.12
2023-02-26T04:57:42.960Z,14.77
2023-02-26T04:58:45.760Z,15.11
2023-02-26T04:59:52.654Z,15.11
2023-02-26T05:00:58.229Z,15.32
2023-02-26T05:02:00.906Z,15.08
2023-02-26T05:03:02.969Z,15.15
2023-02-26T05:04:04.970Z,14.43
2023-02-26T05:05:07.383Z,15.13
2023-02-26T05:06:09.580Z,15.20
2023-02-26T05:07:12.248Z,15.14
2023-02-26T05:08:14.157Z,15.03
2023-02-26T05:09:16.202Z,14.77
2023-02-26T05:10:19.830Z,15.19
2023-02-26T05:11:21.850Z,15.02
2023-02-26T05:12:23.951Z,15.17
2023-02-26T05:13:26.993Z,15.12
2023-02-26T05:14:28.902Z,14.27
2023-02-26T05:15:32.810Z,15.29
2023-02-26T05:16:34.723Z,15.05
2023-02-26T05:17:36.605Z,14.98
2023-02-26T05:18:38.593Z,15.29
2023-02-26T05:19:40.378Z,15.27
2023-02-26T05:20:42.393Z,14.88
2023-02-26T05:21:44.271Z,14.23
2023-02-26T05:22:46.147Z,15.29
2023-02-26T05:23:48.402Z,14.33
2023-02-26T05:24:50.247Z,15.09
2023-02-26T05:25:52.250Z,15.16
2023-02-26T05:26:54.126Z,15.10
2023-02-26T05:27:56.130Z,15.05
2023-02-26T05:28:58.769Z,14.29
2023-02-26T05:30:00.744Z,14.86
2023-02-26T05:31:02.698Z,14.36
2023-02-26T05:32:04.959Z,14.69
2023-02-26T05:33:06.785Z,14.45
2023-02-26T05:34:09.617Z,14.33
2023-02-26T05:35:12.281Z,14.17
2023-02-26T05:36:14.133Z,14.24
2023-02-26T05:37:16.034Z,15.09
2023-02-26T05:38:18.027Z,14.29
2023-02-26T05:39:19.918Z,14.81
2023-02-26T05:40:21.842Z,14.97
2023-02-26T05:41:23.614Z,14.81
2023-02-26T05:42:25.554Z,15.15
2023-02-26T05:43:28.116Z,14.98
2023-02-26T05:44:30.182Z,15.05
2023-02-26T05:45:32.107Z,15.11
2023-02-26T05:46:34.211Z,15.16
2023-02-26T05:47:36.594Z,15.09
2023-02-26T05:48:38.411Z,14.91
2023-02-26T05:49:40.395Z,14.84
2023-02-26T05:50:42.196Z,15.11
2023-02-26T05:51:44.133Z,15.04
2023-02-26T05:52:46.173Z,14.84
2023-02-26T05:53:48.122Z,14.99
2023-02-26T05:54:50.203Z,14.35
2023-02-26T05:55:54.036Z,14.97
2023-02-26T05:56:56.070Z,15.09
2023-02-26T05:58:00.123Z,15.05
2023-02-26T05:59:02.796Z,15.10
2023-02-26T06:00:06.936Z,15.27
2023-02-26T06:01:14.517Z,14.84
2023-02-26T06:02:16.588Z,14.85
2023-02-26T06:03:18.663Z,15.03
2023-02-26T06:04:20.639Z,14.93
2023-02-26T06:05:22.514Z,14.47
2023-02-26T06:06:25.951Z,14.88
2023-02-26T06:07:27.942Z,14.95
2023-02-26T06:08:29.756Z,15.25
2023-02-26T06:09:31.637Z,14.80
2023-02-26T06:10:33.716Z,15.25
2023-02-26T06:11:36.191Z,14.18
2023-02-26T06:12:38.596Z,15.25
2023-02-26T06:13:40.841Z,15.24
2023-02-26T06:14:42.862Z,15.18
2023-02-26T06:15:44.932Z,15.23
2023-02-26T06:16:47.018Z,14.85
2023-02-26T06:17:49.408Z,14.15
2023-02-26T06:18:51.231Z,14.95
2023-02-26T06:19:53.101Z,15.22
2023-02-26T06:20:55.116Z,15.06
2023-02-26T06:21:57.202Z,14.92
2023-02-26T06:22:59.064Z,14.21
2023-02-26T06:24:01.194Z,14.89
2023-02-26T06:25:03.322Z,14.97
2023-02-26T06:26:06.125Z,15.16
2023-02-26T06:27:08.045Z,14.73
2023-02-26T06:28:09.997Z,15.04
2023-02-26T06:29:12.101Z,15.17
2023-02-26T06:30:14.003Z,14.25
2023-02-26T06:31:16.114Z,14.88
2023-02-26T06:32:18.144Z,15.18
2023-02-26T06:33:20.469Z,14.96
2023-02-26T06:34:22.817Z,14.73
2023-02-26T06:35:24.944Z,14.97
2023-02-26T06:36:27.094Z,14.67
2023-02-26T06:37:29.197Z,14.71
2023-02-26T06:38:31.167Z,15.17
2023-02-26T06:39:33.042Z,15.07
2023-02-26T06:40:35.056Z,15.01
2023-02-26T06:41:36.979Z,14.98
2023-02-26T06:42:38.796Z,14.84
2023-02-26T06:43:40.667Z,15.07
2023-02-26T06:44:42.659Z,15.14
2023-02-26T06:45:44.869Z,14.21
2023-02-26T06:46:46.843Z,14.53
2023-02-26T06:47:48.720Z,14.96
2023-02-26T06:48:50.511Z,15.22
2023-02-26T06:49:52.346Z,14.72
2023-02-26T06:50:54.346Z,14.73
2023-02-26T06:51:56.846Z,15.04
2023-02-26T06:52:58.773Z,15.04
2023-02-26T06:54:00.716Z,14.91
2023-02-26T06:55:04.116Z,14.22
2023-02-26T06:56:06.298Z,14.96
2023-02-26T06:57:08.245Z,14.91
2023-02-26T06:58:10.200Z,14.82
2023-02-26T06:59:12.647Z,14.69
2023-02-26T07:00:15.140Z,14.81
2023-02-26T07:01:17.544Z,15.17
2023-02-26T07:02:22.373Z,15.22
2023-02-26T07:03:24.337Z,15.17
2023-02-26T07:04:26.207Z,15.16
2023-02-26T07:05:28.053Z,15.00
2023-02-26T07:06:29.963Z,14.83
2023-02-26T07:07:31.831Z,15.23
2023-02-26T07:08:34.996Z,15.05
2023-02-26T07:09:36.867Z,15.02
2023-02-26T07:10:38.726Z,14.80
2023-02-26T07:11:40.687Z,14.26
2023-02-26T07:12:43.012Z,15.28
2023-02-26T07:13:44.908Z,15.11
2023-02-26T07:14:46.921Z,14.91
2023-02-26T07:15:48.769Z,15.08
2023-02-26T07:16:51.457Z,14.95
2023-02-26T07:17:53.853Z,14.96
2023-02-26T07:18:55.632Z,14.82
2023-02-26T07:19:57.530Z,14.99
2023-02-26T07:20:59.327Z,15.22
2023-02-26T07:22:01.271Z,14.50
2023-02-26T07:23:03.165Z,15.02
2023-02-26T07:24:05.620Z,15.40
2023-02-26T07:25:08.029Z,15.44
2023-02-26T07:26:09.965Z,15.19
2023-02-26T07:27:12.572Z,15.70
2023-02-26T07:28:14.475Z,15.16
2023-02-26T07:29:16.308Z,15.46
2023-02-26T07:30:18.501Z,15.46
2023-02-26T07:31:20.739Z,15.27
2023-02-26T07:32:22.913Z,15.49
2023-02-26T07:33:26.673Z,15.73
2023-02-26T07:34:28.698Z,15.67
2023-02-26T07:35:30.530Z,15.72
2023-02-26T07:36:32.961Z,15.06
2023-02-26T07:37:34.787Z,15.77
2023-02-26T07:38:36.692Z,15.51
2023-02-26T07:39:38.590Z,15.71
2023-02-26T07:40:40.694Z,15.73
2023-02-26T07:41:42.532Z,15.99
2023-02-26T07:42:49.653Z,15.93
2023-02-26T07:43:51.691Z,16.02
2023-02-26T07:44:53.562Z,16.01
2023-02-26T07:45:55.373Z,16.13
2023-02-26T07:46:57.251Z,15.29
2023-02-26T07:48:00.057Z,16.08
2023-02-26T07:49:01.901Z,16.40
2023-02-26T07:50:04.374Z,16.12
2023-02-26T07:51:07.938Z,16.33
2023-02-26T07:52:09.881Z,16.28
2023-02-26T07:53:11.779Z,16.32
2023-02-26T07:54:14.241Z,16.41
2023-02-26T07:55:16.065Z,15.95
2023-02-26T07:56:17.873Z,16.44
2023-02-26T07:57:19.766Z,16.29
2023-02-26T07:58:21.730Z,15.77
2023-02-26T07:59:23.826Z,16.33
2023-02-26T08:00:25.899Z,16.28
2023-02-26T08:01:27.808Z,16.47
2023-02-26T08:02:29.754Z,16.40
2023-02-26T08:03:32.307Z,16.42
2023-02-26T08:04:34.493Z,15.80
2023-02-26T08:05:36.636Z,16.48
2023-02-26T08:06:38.478Z,16.51
2023-02-26T08:07:40.381Z,15.81
2023-02-26T08:08:42.200Z,16.41
2023-02-26T08:09:44.157Z,16.55
2023-02-26T08:10:46.023Z,16.36
2023-02-26T08:11:47.959Z,16.41
2023-02-26T08:12:49.961Z,16.11
2023-02-26T08:13:51.946Z,16.35
2023-02-26T08:14:53.769Z,16.46
2023-02-26T08:15:55.895Z,16.49
2023-02-26T08:16:57.814Z,16.48
2023-02-26T08:17:59.779Z,16.51
2023-02-26T08:19:01.676Z,16.56
2023-02-26T08:20:05.187Z,16.77
2023-02-26T08:21:07.102Z,16.55
2023-02-26T08:22:08.945Z,16.53
2023-02-26T08:23:10.891Z,16.57
2023-02-26T08:24:12.939Z,16.46
2023-02-26T08:25:14.753Z,16.49
2023-02-26T08:26:16.662Z,15.72
2023-02-26T08:27:18.565Z,15.81
2023-02-26T08:28:20.474Z,16.16
2023-02-26T08:29:22.461Z,16.54
2023-02-26T08:30:24.946Z,16.65
2023-02-26T08:31:28.393Z,16.54
2023-02-26T08:32:30.404Z,16.61
2023-02-26T08:33:33.033Z,15.81
2023-02-26T08:34:35.214Z,16.68
2023-02-26T08:35:37.074Z,16.84
2023-02-26T08:36:38.869Z,16.52
2023-02-26T08:37:40.688Z,16.68
2023-02-26T08:38:43.036Z,16.85
2023-02-26T08:39:44.918Z,16.13
2023-02-26T08:40:50.066Z,16.74
2023-02-26T08:41:51.912Z,16.55
2023-02-26T08:42:53.982Z,16.67
2023-02-26T08:43:55.966Z,16.58
2023-02-26T08:44:57.835Z,16.61
2023-02-26T08:46:00.706Z,16.76
2023-02-26T08:47:03.788Z,16.71
2023-02-26T08:48:05.740Z,16.55
2023-02-26T08:49:07.809Z,16.70
2023-02-26T08:50:11.641Z,16.74
2023-02-26T08:51:13.514Z,16.09
2023-02-26T08:52:15.605Z,16.36
2023-02-26T08:53:17.680Z,16.50
2023-02-26T08:54:19.566Z,16.66
2023-02-26T08:55:22.175Z,16.70
2023-02-26T08:56:24.718Z,16.86
2023-02-26T08:57:26.916Z,16.49
2023-02-26T08:58:30.705Z,16.28
2023-02-26T08:59:33.714Z,16.28
2023-02-26T09:00:35.788Z,16.63
2023-02-26T09:01:37.871Z,16.71
2023-02-26T09:02:39.869Z,16.87
2023-02-26T09:03:41.925Z,16.65
2023-02-26T09:04:43.746Z,16.47
2023-02-26T09:05:45.599Z,16.87
2023-02-26T09:06:47.472Z,16.56
2023-02-26T09:07:49.405Z,16.61
2023-02-26T09:08:51.395Z,16.70
2023-02-26T09:09:53.191Z,16.60
2023-02-26T09:10:55.151Z,16.81
2023-02-26T09:11:57.270Z,16.61
2023-02-26T09:12:59.379Z,16.51
2023-02-26T09:14:02.606Z,16.41
2023-02-26T09:15:05.798Z,16.53
2023-02-26T09:16:08.085Z,16.61
2023-02-26T09:17:10.021Z,15.91
2023-02-26T09:18:15.642Z,16.62
2023-02-26T09:19:17.559Z,16.57
2023-02-26T09:20:19.544Z,16.66
2023-02-26T09:21:21.699Z,16.62
2023-02-26T09:22:23.905Z,16.58
2023-02-26T09:23:25.751Z,16.75
2023-02-26T09:24:27.868Z,16.65
2023-02-26T09:25:29.723Z,16.44
2023-02-26T09:26:31.655Z,16.84
2023-02-26T09:27:35.619Z,16.60
2023-02-26T09:28:37.586Z,16.64
2023-02-26T09:29:39.408Z,15.78
2023-02-26T09:30:41.189Z,16.62
2023-02-26T09:31:43.258Z,15.54
2023-02-26T09:32:45.194Z,15.90
2023-02-26T09:33:47.112Z,16.79
2023-02-26T09:34:48.961Z,16.73
2023-02-26T09:35:51.857Z,16.90
2023-02-26T09:36:53.876Z,16.45
2023-02-26T09:37:55.695Z,16.73
2023-02-26T09:38:57.786Z,16.06
2023-02-26T09:40:00.009Z,16.62
2023-02-26T09:41:10.185Z,16.90
2023-02-26T09:42:23.770Z,16.93
2023-02-26T09:43:47.156Z,16.76
2023-02-26T09:44:49.984Z,16.45
2023-02-26T09:45:54.899Z,16.75
2023-02-26T09:47:12.657Z,16.95
2023-02-26T09:48:18.638Z,16.48
2023-02-26T09:49:27.428Z,16.96
2023-02-26T09:50:41.082Z,16.72
2023-02-26T09:51:47.017Z,16.68
2023-02-26T09:53:31.580Z,17.05
2023-02-26T09:54:41.571Z,16.82
2023-02-26T09:55:47.818Z,16.99
2023-02-26T09:56:52.042Z,16.74
2023-02-26T09:57:59.502Z,16.94
2023-02-26T09:59:01.337Z,16.75
2023-02-26T10:00:17.225Z,16.92
2023-02-26T10:01:51.156Z,16.59
2023-02-26T10:03:05.872Z,16.81
2023-02-26T10:04:11.111Z,16.98
2023-02-26T10:05:20.867Z,16.70
2023-02-26T10:06:35.627Z,16.79
2023-02-26T10:08:02.247Z,17.00
2023-02-26T10:09:41.432Z,17.03
2023-02-26T10:10:57.806Z,16.81
2023-02-26T10:12:09.203Z,16.49
2023-02-26T10:13:40.502Z,17.02
2023-02-26T10:15:26.075Z,17.08
2023-02-26T10:16:34.087Z,17.03
2023-02-26T10:17:59.042Z,17.01
2023-02-26T10:19:37.487Z,17.07
2023-02-26T10:20:56.600Z,17.03
2023-02-26T10:22:05.424Z,17.01
2023-02-26T10:23:18.187Z,16.68
2023-02-26T10:24:26.747Z,16.99
2023-02-26T10:25:42.830Z,16.52
2023-02-26T10:27:12.979Z,17.05
2023-02-26T10:28:14.742Z,17.02
2023-02-26T10:29:34.639Z,16.64
2023-02-26T10:30:42.843Z,17.00
2023-02-26T10:32:02.885Z,17.02
2023-02-26T10:33:14.071Z,17.01
2023-02-26T10:34:42.159Z,16.85
2023-02-26T10:35:53.354Z,16.88
2023-02-26T10:37:19.800Z,17.04
2023-02-26T10:38:26.737Z,17.04
2023-02-26T10:39:54.265Z,17.05
2023-02-26T10:41:04.791Z,16.85
2023-02-26T10:42:24.139Z,16.82
2023-02-26T10:43:40.500Z,16.89
2023-02-26T10:45:11.786Z,17.06
2023-02-26T10:46:17.458Z,17.08
2023-02-26T10:47:46.678Z,17.07
2023-02-26T10:49:33.932Z,17.12
2023-02-26T10:50:36.500Z,16.98
2023-02-26T10:51:39.913Z,16.71
2023-02-26T10:52:45.012Z,17.04
2023-02-26T10:53:58.620Z,16.06
2023-02-26T10:55:19.068Z,17.04
2023-02-26T10:56:23.236Z,16.69
2023-02-26T10:57:33.211Z,16.04
2023-02-26T10:58:35.221Z,16.89
2023-02-26T10:59:37.045Z,16.26
2023-02-26T11:00:41.175Z,16.04
2023-02-26T11:01:43.917Z,16.69
2023-02-26T11:02:49.005Z,16.62
2023-02-26T11:04:01.231Z,17.04
2023-02-26T11:05:08.125Z,16.99
2023-02-26T11:06:20.019Z,16.75
2023-02-26T11:07:23.036Z,16.88
2023-02-26T11:08:41.269Z,16.91
2023-02-26T11:09:46.000Z,16.84
2023-02-26T11:10:52.684Z,17.09
2023-02-26T11:11:56.197Z,17.10
2023-02-26T11:12:59.137Z,17.09
2023-02-26T11:14:01.931Z,16.65
2023-02-26T11:15:05.579Z,17.09
2023-02-26T11:16:15.737Z,17.09
2023-02-26T11:17:23.299Z,17.12
2023-02-26T11:18:31.446Z,16.92
2023-02-26T11:19:45.077Z,17.14
2023-02-26T11:20:49.289Z,16.28
2023-02-26T11:21:51.583Z,17.14
2023-02-26T11:22:57.926Z,17.15
2023-02-26T11:24:07.725Z,16.99
2023-02-26T11:25:14.603Z,17.16
2023-02-26T11:26:18.860Z,17.18
2023-02-26T11:27:43.248Z,17.06
2023-02-26T11:28:48.007Z,17.22
2023-02-26T11:29:56.495Z,17.22
2023-02-26T11:31:02.238Z,16.98
2023-02-26T11:32:05.099Z,17.01
2023-02-26T11:33:16.679Z,16.93
2023-02-26T11:34:23.817Z,16.97
2023-02-26T11:35:27.384Z,17.06
2023-02-26T11:36:31.667Z,16.96
2023-02-26T11:37:39.550Z,17.22
2023-02-26T11:38:46.409Z,17.24
2023-02-26T11:40:06.095Z,17.25
2023-02-26T11:41:08.301Z,16.75
2023-02-26T11:42:11.444Z,16.45
2023-02-26T11:43:18.422Z,17.01
2023-02-26T11:44:28.395Z,17.02
2023-02-26T11:45:30.302Z,17.00
2023-02-26T11:46:37.589Z,17.04
2023-02-26T11:47:39.521Z,17.23
2023-02-26T11:48:47.219Z,17.08
2023-02-26T11:49:55.043Z,17.27
2023-02-26T11:51:01.322Z,17.28
2023-02-26T11:52:11.926Z,17.29
2023-02-26T11:53:38.091Z,17.23
2023-02-26T11:54:40.032Z,17.06
2023-02-26T11:55:48.054Z,17.14
2023-02-26T11:56:50.098Z,17.14
2023-02-26T11:57:56.884Z,17.07
2023-02-26T11:59:22.268Z,17.00
2023-02-26T12:00:26.091Z,17.36
2023-02-26T12:01:30.339Z,17.33
2023-02-26T12:02:37.133Z,17.32
2023-02-26T12:03:41.094Z,17.33
2023-02-26T12:04:45.511Z,17.07
2023-02-26T12:05:47.423Z,17.06
2023-02-26T12:06:54.151Z,16.90
2023-02-26T12:07:56.024Z,16.56
2023-02-26T12:08:57.999Z,17.09
2023-02-26T12:09:59.937Z,17.09
2023-02-26T12:11:23.809Z,17.34
2023-02-26T12:12:54.877Z,17.30
2023-02-26T12:14:48.760Z,17.49
2023-02-26T12:16:15.522Z,17.30
2023-02-26T12:17:55.511Z,17.31
2023-02-26T12:19:29.423Z,17.54
2023-02-26T12:20:40.641Z,17.50
2023-02-26T12:22:24.156Z,17.27
2023-02-26T12:23:41.936Z,17.49
2023-02-26T12:25:21.969Z,17.47
2023-02-26T12:26:38.604Z,17.50
2023-02-26T12:28:12.417Z,17.50
2023-02-26T12:29:31.460Z,17.35
2023-02-26T12:30:45.012Z,17.35
2023-02-26T12:32:17.601Z,17.45
2023-02-26T12:33:55.443Z,17.24
2023-02-26T12:35:37.588Z,17.55
2023-02-26T12:36:50.950Z,17.54
2023-02-26T12:38:21.739Z,17.56
2023-02-26T12:39:58.866Z,17.55
2023-02-26T12:41:31.316Z,17.58
2023-02-26T12:42:44.921Z,17.56
2023-02-26T12:43:52.013Z,17.25
2023-02-26T12:45:16.635Z,17.48
2023-02-26T12:46:35.866Z,17.52
2023-02-26T12:47:47.641Z,17.41
2023-02-26T12:49:27.418Z,17.50
2023-02-26T12:50:38.236Z,17.55
2023-02-26T12:52:06.137Z,17.56
2023-02-26T12:53:32.141Z,17.56
2023-02-26T12:55:24.320Z,17.60
2023-02-26T12:56:56.962Z,17.48
2023-02-26T12:58:10.648Z,17.64
2023-02-26T12:59:45.599Z,17.61
2023-02-26T13:01:05.930Z,17.61
2023-02-26T13:02:13.275Z,17.60
2023-02-26T13:03:40.054Z,17.51
2023-02-26T13:04:53.892Z,17.59
2023-02-26T13:05:59.138Z,17.57
2023-02-26T13:07:16.572Z,17.54
2023-02-26T13:08:33.572Z,16.75
2023-02-26T13:09:53.609Z,17.60
2023-02-26T13:11:13.603Z,17.59
2023-02-26T13:12:21.254Z,17.60
2023-02-26T13:13:58.203Z,17.63
2023-02-26T13:15:18.508Z,17.65
2023-02-26T13:16:50.753Z,17.49
2023-02-26T13:18:01.775Z,17.64
2023-02-26T13:19:44.713Z,17.67
2023-02-26T13:20:56.705Z,17.48
2023-02-26T13:22:03.150Z,17.51
2023-02-26T13:23:23.531Z,17.28
2023-02-26T13:24:35.040Z,17.34
2023-02-26T13:25:50.887Z,17.37
2023-02-26T13:26:54.856Z,17.11
2023-02-26T13:27:59.852Z,17.59
2023-02-26T13:29:08.238Z,16.75
2023-02-26T13:30:23.920Z,17.59
2023-02-26T13:31:41.833Z,17.44
2023-02-26T13:32:45.573Z,17.46
2023-02-26T13:33:49.600Z,17.32
2023-02-26T13:35:17.027Z,17.35
2023-02-26T13:36:22.079Z,17.15
2023-02-26T13:37:34.529Z,17.61
2023-02-26T13:38:53.185Z,17.63
2023-02-26T13:40:19.267Z,17.67
2023-02-26T13:41:40.833Z,17.52
2023-02-26T13:43:14.593Z,17.72
2023-02-26T13:44:32.813Z,17.49
2023-02-26T13:45:59.332Z,17.69
2023-02-26T13:47:11.075Z,17.70
2023-02-26T13:48:35.534Z,17.69
2023-02-26T13:49:59.453Z,17.70
2023-02-26T13:51:06.053Z,17.46
2023-02-26T13:52:24.362Z,17.69
2023-02-26T13:53:41.122Z,17.70
2023-02-26T13:54:45.293Z,17.68
2023-02-26T13:55:48.879Z,16.46
2023-02-26T13:57:28.795Z,17.64
2023-02-26T13:58:38.338Z,17.52
2023-02-26T14:00:29.523Z,17.75
2023-02-26T14:01:54.211Z,17.66
2023-02-26T14:02:59.198Z,17.55
2023-02-26T14:04:19.296Z,17.71
2023-02-26T14:05:34.695Z,17.40
2023-02-26T14:06:44.756Z,17.71
2023-02-26T14:07:51.009Z,17.70
2023-02-26T14:08:56.481Z,16.75
2023-02-26T14:10:05.275Z,17.65
2023-02-26T14:11:31.762Z,17.70
2023-02-26T14:12:41.933Z,17.54
2023-02-26T14:14:16.395Z,17.49
2023-02-26T14:15:27.551Z,17.74
2023-02-26T14:16:30.003Z,17.54
2023-02-26T14:17:34.888Z,17.68
2023-02-26T14:18:41.458Z,17.68
2023-02-26T14:19:53.031Z,17.39
2023-02-26T14:21:27.108Z,17.74
2023-02-26T14:22:29.208Z,17.75
2023-02-26T14:23:37.846Z,17.71
2023-02-26T14:24:58.789Z,17.71
2023-02-26T14:26:06.647Z,17.73
2023-02-26T14:27:23.923Z,17.47
2023-02-26T14:28:25.761Z,17.74
2023-02-26T14:29:43.299Z,17.46
2023-02-26T14:30:50.339Z,17.44
2023-02-26T14:32:06.164Z,17.43
2023-02-26T14:33:10.256Z,17.43
2023-02-26T14:34:37.106Z,17.77
2023-02-26T14:35:46.599Z,17.55
2023-02-26T14:36:54.867Z,17.75
2023-02-26T14:38:03.361Z,17.58
2023-02-26T14:39:09.367Z,17.71
2023-02-26T14:40:19.178Z,17.72
2023-02-26T14:41:41.760Z,17.55
2023-02-26T14:42:53.875Z,17.76
2023-02-26T14:44:21.076Z,17.53